• Join FlightAware (Why Join?)
  • Login
  • US Flag 
01:47AM EDT


 

Airport Tracker/Info


-or-


 

Live Flight TrackerFlight Track Log ✈ SKW5631 ✈ 22-Apr-2013 ✈ KSFO - KBUR

Flight Track Log - Related Links

Times and Time Zones

All times are in EDT time to prevent confusion due to time zone crossing. See the SKW5631 flight status page for this flight to view local times or setup timezone preferences in your user account.

Time Position Orientation Groundspeed Altitude Reporting Facility
EDT Latitude Longitude Course Direction KTS MPH feet Rate Location/Type
09:32PM 37.6667 -122.3667 133° Southeast 168 193 1,700  Level Northern Cal TRACON
09:33PM 37.7000 -122.4000 322° Northwest 227 261 4,000 2,340 Climbing Northern Cal TRACON
09:35PM 37.3860 -122.2706 130° Southeast  Level FlightAware Approximate
09:36PM 37.2987 -122.1640 122° Southeast  Level FlightAware Approximate
09:36PM 37.5561 -122.4458 194° South 278 320 9,600  Level Oakland Center
09:37PM 37.2210 -122.0471 135° Southeast  Level FlightAware Approximate
09:37PM 37.4964 -122.3733 136° Southeast 300 345 11,700  Level Oakland Center
09:38PM 37.1541 -121.9610 133° Southeast  Level FlightAware Approximate
09:38PM 37.4278 -122.2992 139° Southeast 323 372 13,200  Level Oakland Center
09:39PM 37.3547 -122.2183 139° Southeast 346 398 15,100 1,860 Climbing Oakland Center
09:40PM 37.2794 -122.1364 139° Southeast 356 410 17,000 1,860 Climbing Oakland Center
09:41PM 37.1878 -122.0372 139° Southeast 364 419 19,000 1,620 Climbing Oakland Center
09:42PM 37.1081 -121.9511 139° Southeast 376 433 20,400 1,320 Climbing Oakland Center
09:43PM 37.0267 -121.8642 140° Southeast 385 443 21,800 1,320 Climbing Oakland Center
09:44PM 36.9417 -121.7778 141° Southeast 391 450 23,200 1,200 Climbing Oakland Center
09:45PM 36.8581 -121.6869 139° Southeast 400 460 24,300 1,080 Climbing Oakland Center
09:46PM 36.7639 -121.5869 140° Southeast 408 470 25,400 1,080 Climbing Oakland Center
09:47PM 36.6767 -121.4931 139° Southeast 413 475 26,500 780 Climbing Oakland Center
09:48PM 36.5869 -121.4000 140° Southeast 419 482 27,000 240 Climbing Oakland Center
09:49PM 36.4936 -121.3031 140° Southeast 435 501 27,000  Level Oakland Center
09:50PM 36.3969 -121.2000 139° Southeast 453 521 27,000  Level Oakland Center
09:51PM 36.3006 -121.0981 140° Southeast 456 525 27,000  Level Oakland Center
09:52PM 36.2017 -120.9978 141° Southeast 458 527 27,000  Level Oakland Center
09:53PM 36.1050 -120.8964 140° Southeast 456 525 27,000  Level Oakland Center
09:54PM 36.0097 -120.7961 140° Southeast 451 519 27,000  Level Oakland Center
09:55PM 35.9167 -120.7008 140° Southeast 435 501 27,000  Level Oakland Center
09:56PM 35.8081 -120.5889 140° Southeast 426 490 27,000  Level Oakland Center
09:57PM 35.7186 -120.4975 140° Southeast 418 481 27,000  Level Oakland Center
09:58PM 35.6292 -120.4075 141° Southeast 414 476 27,000  Level Oakland Center
09:59PM 35.5397 -120.3164 140° Southeast 412 474 27,000 -360 Level Oakland Center
10:00PM 35.4481 -120.2233 140° Southeast 421 484 26,300 -660 Descending Oakland Center
10:01PM 35.3328 -120.1061 140° Southeast 438 504 25,600 -600 Descending Los Angeles Center
10:02PM 35.2364 -120.0097 141° Southeast 442 509 25,000 -660 Descending Los Angeles Center
10:03PM 35.1417 -119.9147 141° Southeast 442 509 24,300 -1,080 Descending Los Angeles Center
10:04PM 35.0625 -119.8231 137° Southeast 407 468 22,800 -1,500 Descending Los Angeles Center
10:06PM 34.9936 -119.7306 132° Southeast 379 436 21,200 -1,500 Descending Los Angeles Center
10:07PM 34.9269 -119.6397 132° Southeast 365 420 19,800 -1,380 Descending Los Angeles Center
10:08PM 34.8586 -119.5489 133° Southeast 363 418 18,400 -1,560 Descending Los Angeles Center
10:09PM 34.7817 -119.4464 132° Southeast 348 400 16,700 -1,560 Descending Los Angeles Center
10:10PM 34.7200 -119.3633 132° Southeast 337 388 15,300 -1,380 Descending Los Angeles Center
10:11PM 34.6558 -119.2783 133° Southeast 338 389 13,900 -1,380 Descending Los Angeles Center
10:12PM 34.5944 -119.1989 133° Southeast 331 381 12,500 -1,380 Descending Los Angeles Center
10:13PM 34.5381 -119.1236 132° Southeast 311 358 11,100 -720 Descending Los Angeles Center
10:14PM 34.4817 -119.0453 131° Southeast 306 352 11,100 -540 Level Los Angeles Center
10:15PM 34.4233 -118.9686 133° Southeast 308 354 10,100 -1,380 Descending Los Angeles Center
10:16PM 34.3694 -118.8928 131° Southeast 297 342 8,300 -1,800 Descending Los Angeles Center
10:17PM 34.3158 -118.8008 125° Southeast 277 319 6,500 -1,140 Descending Los Angeles Center
10:18PM 34.2739 -118.7347 128° Southeast 251 289 6,000 -660 Descending Los Angeles Center
10:19PM 34.2364 -118.6711 125° Southeast 243 280 5,200 -780 Descending Los Angeles Center
10:20PM 34.2167 -118.6167 114° Southeast 223 257 4,700 -720 Descending Southern California TRACON
10:21PM 34.2000 -118.5500 107° East 194 223 4,000 -720 Descending Southern California TRACON